Terminal Aerodrome Forecast
Issued by NWS Buffalo, NY

Home | Current Version | Previous Version | Text Only | Print | Product List | Glossary On
Versions: 1 2 3 4 5 6 7 8 9 10 11 12 13 14 15 16 17 18 19 20 21 22 23 24 25 26 27 28 29 30 31 32 33 34 35 36
249
FTUS41 KBUF 140302 AAB
TAFROC
TAF AMD
KROC 140302Z 1403/1424 34012KT 3/4SM -SN VV015
     FM140600 33008KT 1SM -SN OVC004
     FM140900 30008KT 4SM -SN SCT008 BKN025
     FM141500 28008KT P6SM VCSH BKN035
     FM142000 25006KT P6SM SCT035 SCT080=

USA.gov is the U.S. government's official web portal to all federal, state and local government web resources and services.